createdAt,value
2023-02-19T00:01:30.020Z,99756.66
2023-02-19T00:04:02.519Z,99761.84
2023-02-19T00:06:31.079Z,99750.44
2023-02-19T00:08:57.761Z,99757.38
2023-02-19T00:11:27.774Z,99750.44
2023-02-19T00:13:57.383Z,99750.44
2023-02-19T00:16:31.779Z,99740.84
2023-02-19T00:19:00.169Z,99741.56
2023-02-19T00:21:27.404Z,99746.84
2023-02-19T00:23:56.476Z,99746.97
2023-02-19T00:26:23.265Z,99743.47
2023-02-19T00:28:51.409Z,99744.41
2023-02-19T00:31:24.206Z,99736.50
2023-02-19T00:33:53.964Z,99739.97
2023-02-19T00:36:20.795Z,99735.56
2023-02-19T00:38:48.189Z,99733.88
2023-02-19T00:41:19.081Z,99735.66
2023-02-19T00:43:57.282Z,99735.00
2023-02-19T00:46:35.902Z,99727.00
2023-02-19T00:49:02.855Z,99732.06
2023-02-19T00:51:32.039Z,99727.75
2023-02-19T00:53:58.814Z,99735.56
2023-02-19T00:56:25.433Z,99732.06
2023-02-19T00:58:51.970Z,99739.06
2023-02-19T01:01:19.324Z,99739.88
2023-02-19T01:03:46.887Z,99735.38
2023-02-19T01:06:15.741Z,99741.47
2023-02-19T01:08:42.406Z,99744.03
2023-02-19T01:11:11.672Z,99736.03
2023-02-19T01:13:38.661Z,99735.94
2023-02-19T01:16:10.570Z,99742.91
2023-02-19T01:18:37.192Z,99742.72
2023-02-19T01:21:13.440Z,99737.63
2023-02-19T01:23:40.355Z,99744.41
2023-02-19T01:26:09.238Z,99722.44
2023-02-19T01:28:36.590Z,99728.56
2023-02-19T01:31:05.532Z,99739.97
2023-02-19T01:33:33.215Z,99734.63
2023-02-19T01:36:00.221Z,99737.25
2023-02-19T01:38:27.620Z,99731.97
2023-02-19T01:40:58.432Z,99726.72
2023-02-19T01:43:25.045Z,99728.41
2023-02-19T01:45:51.769Z,99729.22
2023-02-19T01:48:23.072Z,99722.25
2023-02-19T01:51:02.915Z,99721.44
2023-02-19T01:53:33.512Z,99726.59
2023-02-19T01:56:02.270Z,99722.16
2023-02-19T01:58:33.954Z,99731.03
2023-02-19T02:01:03.049Z,99725.66
2023-02-19T02:03:31.354Z,99720.41
2023-02-19T02:06:03.784Z,99720.47
2023-02-19T02:08:50.266Z,99716.91
2023-02-19T02:11:17.730Z,99714.16
2023-02-19T02:13:44.765Z,99719.44
2023-02-19T02:16:30.289Z,99725.94
2023-02-19T02:19:17.994Z,99731.97
2023-02-19T02:22:02.913Z,99730.25
2023-02-19T02:25:00.591Z,99729.44
2023-02-19T02:28:04.232Z,99722.34
2023-02-19T02:30:46.317Z,99722.91
2023-02-19T02:33:21.777Z,99716.81
2023-02-19T02:35:53.128Z,99721.31
2023-02-19T02:38:23.706Z,99712.56
2023-02-19T02:40:51.231Z,99718.69
2023-02-19T02:43:17.868Z,99714.25
2023-02-19T02:45:44.434Z,99716.91
2023-02-19T02:48:19.747Z,99713.53
2023-02-19T02:50:54.524Z,99718.69
2023-02-19T02:53:46.221Z,99721.31
2023-02-19T02:56:15.532Z,99719.53
2023-02-19T02:58:43.388Z,99723.94
2023-02-19T03:01:43.300Z,99725.00
2023-02-19T03:04:15.618Z,99718.78
2023-02-19T03:06:44.588Z,99734.50
2023-02-19T03:09:30.198Z,99737.25
2023-02-19T03:12:19.114Z,99730.25
2023-02-19T03:15:17.082Z,99728.56
2023-02-19T03:18:07.317Z,99731.22
2023-02-19T03:20:36.624Z,99734.72
2023-02-19T03:23:05.156Z,99741.75
2023-02-19T03:25:54.471Z,99736.59
2023-02-19T03:28:45.211Z,99730.56
2023-02-19T03:31:17.045Z,99732.34
2023-02-19T03:33:47.355Z,99736.75
2023-02-19T03:36:18.914Z,99739.53
2023-02-19T03:38:56.823Z,99744.97
2023-02-19T03:41:23.292Z,99753.63
2023-02-19T03:43:49.683Z,99756.38
2023-02-19T03:46:25.683Z,99767.94
2023-02-19T03:49:10.491Z,99766.34
2023-02-19T03:51:44.136Z,99766.25
2023-02-19T03:54:35.254Z,99774.44
2023-02-19T03:57:11.826Z,99765.41
2023-02-19T03:59:52.449Z,99772.66
2023-02-19T04:03:06.045Z,99780.75
2023-02-19T04:05:37.303Z,99779.72
2023-02-19T04:08:14.082Z,99775.50
2023-02-19T04:10:41.756Z,99791.09
2023-02-19T04:13:26.434Z,99778.31
2023-02-19T04:15:56.938Z,99780.84
2023-02-19T04:18:29.127Z,99802.03
2023-02-19T04:20:57.568Z,99798.44
2023-02-19T04:23:28.932Z,99810.88
2023-02-19T04:25:59.554Z,99802.13
2023-02-19T04:28:26.130Z,99809.16
2023-02-19T04:30:52.814Z,99813.59
2023-02-19T04:33:19.352Z,99840.06
2023-02-19T04:35:45.776Z,99830.47
2023-02-19T04:38:13.824Z,99834.00
2023-02-19T04:40:40.375Z,99825.34
2023-02-19T04:43:06.945Z,99838.63
2023-02-19T04:45:33.581Z,99843.16
2023-02-19T04:48:00.215Z,99848.50
2023-02-19T04:50:26.689Z,99845.09
2023-02-19T04:52:53.318Z,99860.09
2023-02-19T04:55:19.810Z,99860.91
2023-02-19T04:57:46.247Z,99862.81
2023-02-19T05:00:13.490Z,99865.53
2023-02-19T05:02:39.969Z,99867.28
2023-02-19T05:05:06.591Z,99864.66
2023-02-19T05:07:33.732Z,99868.25
2023-02-19T05:10:00.158Z,99870.03
2023-02-19T05:12:26.833Z,99876.16
2023-02-19T05:14:53.504Z,99881.41
2023-02-19T05:17:20.065Z,99883.19
2023-02-19T05:19:46.529Z,99892.91
2023-02-19T05:22:12.963Z,99889.31
2023-02-19T05:24:39.509Z,99892.91
2023-02-19T05:27:06.004Z,99897.41
2023-02-19T05:29:32.540Z,99907.03
2023-02-19T05:32:05.422Z,99910.78
2023-02-19T05:34:32.083Z,99901.91
2023-02-19T05:36:58.632Z,99917.72
2023-02-19T05:39:25.141Z,99926.59
2023-02-19T05:41:51.653Z,99916.88
2023-02-19T05:44:18.111Z,99924.84
2023-02-19T05:46:44.660Z,99922.22
2023-02-19T05:49:11.054Z,99926.66
2023-02-19T05:51:37.595Z,99928.44
2023-02-19T05:54:04.178Z,99933.72
2023-02-19T05:56:38.972Z,99934.81
2023-02-19T05:59:17.945Z,99945.44
2023-02-19T06:01:44.982Z,99961.06
2023-02-19T06:04:12.386Z,99971.63
2023-02-19T06:06:39.184Z,99969.94
2023-02-19T06:09:06.853Z,99980.72
2023-02-19T06:11:34.070Z,99977.56
2023-02-19T06:14:00.875Z,99989.47
2023-02-19T06:16:27.635Z,100003.03
2023-02-19T06:18:54.184Z,100005.34
2023-02-19T06:21:20.739Z,100013.72
2023-02-19T06:23:47.409Z,100012.44
2023-02-19T06:26:20.910Z,100024.22
2023-02-19T06:28:49.288Z,100031.50
2023-02-19T06:31:17.360Z,100036.13
2023-02-19T06:33:44.133Z,100049.53
2023-02-19T06:36:16.355Z,100049.16
2023-02-19T06:38:42.974Z,100049.47
2023-02-19T06:41:11.165Z,100050.88
2023-02-19T06:43:38.208Z,100061.75
2023-02-19T06:46:06.719Z,100072.72
2023-02-19T06:48:33.978Z,100079.22
2023-02-19T06:51:00.504Z,100081.38
2023-02-19T06:53:27.584Z,100089.63
2023-02-19T06:55:57.773Z,100105.84
2023-02-19T06:58:24.610Z,100111.41
2023-02-19T07:00:51.189Z,100114.28
2023-02-19T07:03:17.715Z,100122.41
2023-02-19T07:05:44.224Z,100128.72
2023-02-19T07:08:10.766Z,100134.13
2023-02-19T07:10:37.331Z,100143.84
2023-02-19T07:13:04.072Z,100141.34
2023-02-19T07:15:30.607Z,100137.97
2023-02-19T07:17:57.018Z,100141.56
2023-02-19T07:20:23.539Z,100153.00
2023-02-19T07:22:50.418Z,100158.38
2023-02-19T07:25:17.215Z,100162.09
2023-02-19T07:27:43.643Z,100166.53
2023-02-19T07:30:10.930Z,100164.91
2023-02-19T07:32:41.281Z,100175.53
2023-02-19T07:35:08.008Z,100172.16
2023-02-19T07:37:34.604Z,100181.84
2023-02-19T07:40:01.308Z,100191.56
2023-02-19T07:42:27.937Z,100196.03
2023-02-19T07:44:54.515Z,100194.41
2023-02-19T07:47:20.950Z,100198.81
2023-02-19T07:49:47.374Z,100203.19
2023-02-19T07:52:13.878Z,100215.47
2023-02-19T07:54:40.348Z,100221.56
2023-02-19T07:57:06.884Z,100229.47
2023-02-19T07:59:34.927Z,100234.66
2023-02-19T08:02:19.690Z,100228.47
2023-02-19T08:04:48.037Z,100239.91
2023-02-19T08:07:14.466Z,100247.72
2023-02-19T08:09:40.926Z,100251.16
2023-02-19T08:12:29.373Z,100243.34
2023-02-19T08:14:55.884Z,100256.44
2023-02-19T08:17:22.420Z,100249.41
2023-02-19T08:19:48.967Z,100249.41
2023-02-19T08:22:16.295Z,100252.09
2023-02-19T08:24:45.048Z,100264.38
2023-02-19T08:27:11.588Z,100266.28
2023-02-19T08:29:38.005Z,100276.00
2023-02-19T08:32:04.699Z,100271.78
2023-02-19T08:34:31.212Z,100272.84
2023-02-19T08:36:57.762Z,100281.75
2023-02-19T08:39:24.319Z,100278.38
2023-02-19T08:41:50.930Z,100265.34
2023-02-19T08:44:18.069Z,100268.88
2023-02-19T08:46:44.440Z,100270.66
2023-02-19T08:49:10.929Z,100280.25
2023-02-19T08:51:37.408Z,100282.81
2023-02-19T08:54:04.325Z,100290.63
2023-02-19T08:56:30.856Z,100300.25
2023-02-19T08:58:57.400Z,100300.19
2023-02-19T09:01:23.982Z,100308.00
2023-02-19T09:03:50.708Z,100313.16
2023-02-19T09:06:19.006Z,100317.41
2023-02-19T09:08:45.501Z,100329.50
2023-02-19T09:11:12.778Z,100334.66
2023-02-19T09:13:39.483Z,100333.63
2023-02-19T09:16:06.366Z,100341.44
2023-02-19T09:18:33.019Z,100349.19
2023-02-19T09:21:05.077Z,100350.84
2023-02-19T09:23:36.331Z,100353.34
2023-02-19T09:26:06.758Z,100365.44
2023-02-19T09:28:33.388Z,100366.97
2023-02-19T09:31:12.013Z,100370.31
2023-02-19T09:33:42.199Z,100370.03
2023-02-19T09:36:09.025Z,100383.91
2023-02-19T09:38:35.477Z,100386.41
2023-02-19T09:41:14.460Z,100395.22
2023-02-19T09:43:42.894Z,100403.81
2023-02-19T09:46:32.555Z,100409.94
2023-02-19T09:49:08.045Z,100409.00
2023-02-19T09:51:37.956Z,100402.69
2023-02-19T09:54:07.839Z,100411.41
2023-02-19T09:56:34.668Z,100425.19
2023-02-19T09:59:01.696Z,100438.13
2023-02-19T10:01:32.818Z,100453.72
2023-02-19T10:03:59.625Z,100458.63
2023-02-19T10:06:29.849Z,100468.06
2023-02-19T10:09:11.467Z,100464.25
2023-02-19T10:11:38.434Z,100469.88
2023-02-19T10:14:09.510Z,100474.91
2023-02-19T10:16:40.838Z,100478.19
2023-02-19T10:19:12.397Z,100478.91
2023-02-19T10:21:39.954Z,100488.38
2023-02-19T10:24:08.242Z,100496.19
2023-02-19T10:26:36.737Z,100492.56
2023-02-19T10:29:05.150Z,100479.41
2023-02-19T10:31:33.407Z,100479.22
2023-02-19T10:34:01.974Z,100475.47
2023-02-19T10:36:42.783Z,100483.03
2023-02-19T10:39:43.931Z,100490.56
2023-02-19T10:42:22.035Z,100508.41
2023-02-19T10:44:58.843Z,100512.28
2023-02-19T10:47:27.210Z,100501.13
2023-02-19T10:49:59.450Z,100504.03
2023-02-19T10:52:30.191Z,100505.25
2023-02-19T10:55:18.390Z,100507.38
2023-02-19T10:57:46.884Z,100507.63
2023-02-19T11:03:23.950Z,100522.66
2023-02-19T11:05:56.318Z,100530.03
2023-02-19T11:08:24.311Z,100535.94
2023-02-19T11:10:51.169Z,100534.00
2023-02-19T11:13:32.210Z,100532.16
2023-02-19T11:15:59.894Z,100522.91
2023-02-19T11:18:30.276Z,100529.53
2023-02-19T11:20:58.288Z,100524.47
2023-02-19T11:23:34.393Z,100517.25
2023-02-19T11:26:05.082Z,100520.63
2023-02-19T11:28:35.066Z,100508.31
2023-02-19T11:31:20.133Z,100505.28
2023-02-19T11:34:14.660Z,100506.84
2023-02-19T11:36:42.791Z,100501.38
2023-02-19T11:39:15.083Z,100505.00
2023-02-19T11:42:01.396Z,100498.09
2023-02-19T11:44:46.594Z,100506.34
2023-02-19T11:47:34.821Z,100505.91
2023-02-19T11:50:21.087Z,100497.59
2023-02-19T11:53:00.103Z,100499.94
2023-02-19T11:55:32.652Z,100506.09
2023-02-19T11:58:13.658Z,100507.16
2023-02-19T12:01:05.221Z,100505.38
2023-02-19T12:03:55.830Z,100513.38
2023-02-19T12:06:48.479Z,100508.47
2023-02-19T12:09:43.219Z,100517.84
2023-02-19T12:12:36.155Z,100522.19
2023-02-19T12:15:09.428Z,100523.63
2023-02-19T12:17:51.195Z,100524.84
2023-02-19T12:20:27.082Z,100523.44
2023-02-19T12:23:08.645Z,100531.41
2023-02-19T12:25:57.774Z,100539.00
2023-02-19T12:28:42.936Z,100531.22
2023-02-19T12:31:40.552Z,100534.97
2023-02-19T12:34:19.327Z,100536.47
2023-02-19T12:36:56.222Z,100537.75
2023-02-19T12:39:49.991Z,100539.72
2023-02-19T12:43:04.036Z,100543.06
2023-02-19T12:45:36.414Z,100544.34
2023-02-19T12:48:20.518Z,100551.94
2023-02-19T12:50:51.356Z,100555.75
2023-02-19T12:53:20.973Z,100560.72
2023-02-19T12:55:48.335Z,100546.34
2023-02-19T12:58:27.392Z,100541.56
2023-02-19T13:00:59.139Z,100550.34
2023-02-19T13:03:30.687Z,100550.34
2023-02-19T13:06:21.313Z,100556.78
2023-02-19T13:09:06.388Z,100550.53
2023-02-19T13:11:56.440Z,100553.50
2023-02-19T13:14:34.757Z,100566.31
2023-02-19T13:17:09.415Z,100558.84
2023-02-19T13:19:37.896Z,100559.88
2023-02-19T13:22:40.869Z,100562.91
2023-02-19T13:25:10.149Z,100565.28
2023-02-19T13:27:48.969Z,100551.56
2023-02-19T13:31:07.750Z,100554.41
2023-02-19T13:33:44.807Z,100558.00
2023-02-19T13:36:21.539Z,100562.06
2023-02-19T13:38:50.049Z,100560.66
2023-02-19T13:41:31.181Z,100566.13
2023-02-19T13:44:03.677Z,100569.34
2023-02-19T13:46:37.818Z,100580.59
2023-02-19T13:49:22.873Z,100579.72
2023-02-19T13:51:55.004Z,100574.00
2023-02-19T13:54:29.018Z,100582.50
2023-02-19T13:57:23.414Z,100576.16
2023-02-19T13:59:51.804Z,100578.97
2023-02-19T14:02:21.328Z,100590.25
2023-02-19T14:04:55.538Z,100589.94
2023-02-19T14:07:35.256Z,100589.78
2023-02-19T14:10:03.050Z,100598.84
2023-02-19T14:12:35.164Z,100605.59
2023-02-19T14:15:39.042Z,100610.50
2023-02-19T14:18:42.537Z,100617.84
2023-02-19T14:21:39.833Z,100619.09
2023-02-19T14:24:13.426Z,100615.69
2023-02-19T14:26:41.270Z,100616.81
2023-02-19T14:29:10.619Z,100622.47
2023-02-19T14:31:38.434Z,100611.38
2023-02-19T14:34:13.634Z,100616.16
2023-02-19T14:37:01.074Z,100602.56
2023-02-19T14:39:31.173Z,100605.41
2023-02-19T14:42:01.021Z,100596.88
2023-02-19T14:44:33.951Z,100587.41
2023-02-19T14:47:09.573Z,100578.84
2023-02-19T14:49:47.297Z,100570.22
2023-02-19T14:52:22.030Z,100569.47
2023-02-19T14:54:50.898Z,100564.28
2023-02-19T14:57:23.504Z,100556.56
2023-02-19T15:00:22.512Z,100554.28
2023-02-19T15:02:53.529Z,100542.75
2023-02-19T15:05:26.109Z,100542.91
2023-02-19T15:07:55.306Z,100525.28
2023-02-19T15:10:22.565Z,100522.66
2023-02-19T15:12:55.536Z,100512.31
2023-02-19T15:15:23.190Z,100516.69
2023-02-19T15:17:50.984Z,100520.00
2023-02-19T15:20:24.554Z,100517.69
2023-02-19T15:22:52.882Z,100517.78
2023-02-19T15:25:22.259Z,100524.25
2023-02-19T15:27:49.082Z,100521.75
2023-02-19T15:30:27.470Z,100531.69
2023-02-19T15:32:59.527Z,100535.50
2023-02-19T15:35:28.755Z,100536.53
2023-02-19T15:37:55.682Z,100544.66
2023-02-19T15:40:29.381Z,100546.00
2023-02-19T15:42:56.378Z,100556.72
2023-02-19T15:45:37.657Z,100564.97
2023-02-19T15:48:10.609Z,100566.84
2023-02-19T15:50:44.045Z,100568.00
2023-02-19T15:53:18.812Z,100565.53
2023-02-19T15:56:07.561Z,100573.91
2023-02-19T15:58:45.682Z,100573.28
2023-02-19T16:01:15.810Z,100576.88
2023-02-19T16:03:42.886Z,100573.56
2023-02-19T16:06:14.981Z,100568.66
2023-02-19T16:09:01.963Z,100573.19
2023-02-19T16:11:37.018Z,100577.78
2023-02-19T16:14:37.115Z,100571.94
2023-02-19T16:17:22.033Z,100578.91
2023-02-19T16:19:56.831Z,100582.56
2023-02-19T16:22:26.648Z,100581.00
2023-02-19T16:25:00.887Z,100590.91
2023-02-19T16:27:34.132Z,100593.59
2023-02-19T16:30:10.344Z,100589.41
2023-02-19T16:32:37.047Z,100595.53
2023-02-19T16:35:04.929Z,100588.63
2023-02-19T16:37:56.030Z,100596.91
2023-02-19T16:40:45.521Z,100601.25
2023-02-19T16:43:15.087Z,100595.25
2023-02-19T16:45:42.267Z,100605.00
2023-02-19T16:48:10.255Z,100605.22
2023-02-19T16:50:37.116Z,100606.38
2023-02-19T16:53:04.239Z,100600.34
2023-02-19T16:55:32.571Z,100604.94
2023-02-19T16:57:59.075Z,100600.59
2023-02-19T17:02:58.525Z,100615.88
2023-02-19T17:05:28.422Z,100615.94
2023-02-19T17:07:55.291Z,100627.34
2023-02-19T17:10:25.421Z,100625.75
2023-02-19T17:12:53.623Z,100623.19
2023-02-19T17:15:20.464Z,100623.19
2023-02-19T17:17:47.945Z,100626.72
2023-02-19T17:20:17.266Z,100630.34
2023-02-19T17:22:44.421Z,100626.88
2023-02-19T17:25:11.020Z,100626.00
2023-02-19T17:27:37.487Z,100622.44
2023-02-19T17:30:09.927Z,100630.50
2023-02-19T17:32:36.490Z,100633.16
2023-02-19T17:35:03.162Z,100630.50
2023-02-19T17:37:29.632Z,100639.31
2023-02-19T17:39:56.159Z,100626.25
2023-02-19T17:42:23.550Z,100621.03
2023-02-19T17:44:51.879Z,100612.25
2023-02-19T17:47:18.514Z,100624.56
2023-02-19T17:49:44.984Z,100623.78
2023-02-19T17:52:13.580Z,100635.31
2023-02-19T17:54:40.193Z,100630.09
2023-02-19T17:57:06.661Z,100644.19
2023-02-19T17:59:33.128Z,100640.00
2023-02-19T18:01:59.665Z,100642.75
2023-02-19T18:04:26.093Z,100652.50
2023-02-19T18:06:53.959Z,100656.13
2023-02-19T18:09:22.386Z,100655.31
2023-02-19T18:11:49.314Z,100652.75
2023-02-19T18:14:15.862Z,100652.81
2023-02-19T18:16:49.985Z,100657.31
2023-02-19T18:19:17.317Z,100667.78
2023-02-19T18:21:44.085Z,100659.88
2023-02-19T18:24:10.679Z,100669.56
2023-02-19T18:26:37.205Z,100663.50
2023-02-19T18:29:05.505Z,100665.31
2023-02-19T18:31:37.308Z,100668.03
2023-02-19T18:34:04.930Z,100668.13
2023-02-19T18:36:33.543Z,100654.16
2023-02-19T18:39:00.054Z,100658.53
2023-02-19T18:41:26.660Z,100668.22
2023-02-19T18:43:53.216Z,100662.16
2023-02-19T18:46:21.272Z,100660.44
2023-02-19T18:48:47.926Z,100663.16
2023-02-19T18:51:14.582Z,100667.63
2023-02-19T18:53:42.860Z,100666.81
2023-02-19T18:56:09.379Z,100665.97
2023-02-19T18:58:36.058Z,100671.31
2023-02-19T19:01:02.723Z,100658.22
2023-02-19T19:03:30.840Z,100655.69
2023-02-19T19:05:57.616Z,100655.75
2023-02-19T19:08:24.512Z,100653.13
2023-02-19T19:10:51.031Z,100662.00
2023-02-19T19:13:17.583Z,100664.69
2023-02-19T19:15:49.867Z,100660.50
2023-02-19T19:18:16.460Z,100663.97
2023-02-19T19:20:42.965Z,100661.38
2023-02-19T19:23:09.409Z,100658.81
2023-02-19T19:25:36.048Z,100655.47
2023-02-19T19:28:02.558Z,100658.22
2023-02-19T19:30:29.180Z,100651.28
2023-02-19T19:32:55.850Z,100657.47
2023-02-19T19:35:22.726Z,100662.00
2023-02-19T19:37:49.566Z,100661.19
2023-02-19T19:40:17.856Z,100679.66
2023-02-19T19:42:44.744Z,100675.34
2023-02-19T19:45:12.435Z,100680.66
2023-02-19T19:47:39.604Z,100686.78
2023-02-19T19:50:06.324Z,100685.91
2023-02-19T19:52:32.804Z,100679.81
2023-02-19T19:54:59.302Z,100675.44
2023-02-19T19:57:25.819Z,100668.47
2023-02-19T19:59:52.505Z,100670.28
2023-02-19T20:02:19.761Z,100674.66
2023-02-19T20:04:46.301Z,100672.91
2023-02-19T20:07:12.745Z,100679.91
2023-02-19T20:09:39.339Z,100686.09
2023-02-19T20:12:06.572Z,100690.50
2023-02-19T20:14:33.852Z,100677.34
2023-02-19T20:17:01.470Z,100677.34
2023-02-19T20:19:27.997Z,100683.53
2023-02-19T20:21:54.712Z,100680.09
2023-02-19T20:24:24.904Z,100683.69
2023-02-19T20:26:58.521Z,100681.13
2023-02-19T20:29:30.161Z,100686.47
2023-02-19T20:31:59.792Z,100671.53
2023-02-19T20:34:26.965Z,100668.13
2023-02-19T20:36:53.865Z,100667.25
2023-02-19T20:39:22.211Z,100653.22
2023-02-19T20:41:51.539Z,100646.28
2023-02-19T20:44:19.311Z,100653.31
2023-02-19T20:46:49.300Z,100662.19
2023-02-19T20:49:17.811Z,100655.25
2023-02-19T20:51:50.083Z,100664.16
2023-02-19T20:54:17.371Z,100670.41
2023-02-19T20:56:48.420Z,100675.84
2023-02-19T20:59:16.253Z,100680.22
2023-02-19T21:01:43.303Z,100684.69
2023-02-19T21:04:10.082Z,100684.75
2023-02-19T21:06:36.893Z,100696.09
2023-02-19T21:09:04.853Z,100698.72
2023-02-19T21:11:31.849Z,100687.44
2023-02-19T21:13:59.347Z,100679.66
2023-02-19T21:16:27.112Z,100676.25
2023-02-19T21:18:54.142Z,100673.72
2023-02-19T21:21:25.275Z,100689.59
2023-02-19T21:23:57.112Z,100680.09
2023-02-19T21:26:24.233Z,100667.88
2023-02-19T21:28:51.762Z,100656.66
2023-02-19T21:31:18.807Z,100648.03
2023-02-19T21:33:45.433Z,100646.44
2023-02-19T21:36:12.507Z,100650.97
2023-02-19T21:38:39.200Z,100646.75
2023-02-19T21:41:05.851Z,100656.50
2023-02-19T21:43:32.362Z,100654.84
2023-02-19T21:45:59.009Z,100664.56
2023-02-19T21:48:25.445Z,100662.88
2023-02-19T21:50:52.018Z,100664.72
2023-02-19T21:53:19.156Z,100663.06
2023-02-19T21:55:57.825Z,100655.28
2023-02-19T21:58:25.351Z,100644.03
2023-02-19T22:00:53.774Z,100646.78
2023-02-19T22:03:20.475Z,100653.09
2023-02-19T22:05:47.081Z,100648.81
2023-02-19T22:08:15.543Z,100641.09
2023-02-19T22:10:42.595Z,100659.53
2023-02-19T22:13:09.897Z,100641.25
2023-02-19T22:15:36.705Z,100643.88
2023-02-19T22:18:03.523Z,100635.25
2023-02-19T22:20:30.089Z,100636.16
2023-02-19T22:22:56.548Z,100636.22
2023-02-19T22:25:23.140Z,100650.25
2023-02-19T22:27:49.790Z,100664.34
2023-02-19T22:30:16.558Z,100660.00
2023-02-19T22:32:43.123Z,100666.97
2023-02-19T22:35:09.670Z,100677.47
2023-02-19T22:37:36.214Z,100679.19
2023-02-19T22:40:02.706Z,100676.56
2023-02-19T22:42:29.426Z,100680.94
2023-02-19T22:44:56.003Z,100677.41
2023-02-19T22:47:22.537Z,100678.25
2023-02-19T22:49:49.098Z,100678.25
2023-02-19T22:52:15.726Z,100676.47
2023-02-19T22:54:42.296Z,100672.97
2023-02-19T22:57:08.722Z,100676.47
2023-02-19T22:59:35.219Z,100671.19
2023-02-19T23:02:01.769Z,100667.72
2023-02-19T23:04:28.394Z,100672.09
2023-02-19T23:06:54.930Z,100671.22
2023-02-19T23:09:24.894Z,100666.91
2023-02-19T23:11:52.198Z,100677.41
2023-02-19T23:14:20.625Z,100678.31
2023-02-19T23:16:47.140Z,100677.41
2023-02-19T23:19:15.590Z,100673.13
2023-02-19T23:21:43.927Z,100666.16
2023-02-19T23:24:11.176Z,100669.75
2023-02-19T23:26:45.580Z,100658.56
2023-02-19T23:29:15.536Z,100659.53
2023-02-19T23:31:42.270Z,100657.78
2023-02-19T23:34:08.980Z,100650.84
2023-02-19T23:36:42.718Z,100648.31
2023-02-19T23:39:11.382Z,100648.31
2023-02-19T23:41:38.346Z,100653.56
2023-02-19T23:44:05.496Z,100647.50
2023-02-19T23:46:33.938Z,100634.41
2023-02-19T23:49:00.414Z,100644.94
2023-02-19T23:51:26.940Z,100626.63
2023-02-19T23:53:53.387Z,100624.91
2023-02-19T23:56:28.232Z,100621.59
2023-02-19T23:58:55.007Z,100618.06
